createdAt,value
2023-02-04T00:00:15.043Z,97547.16
2023-02-04T00:02:41.949Z,97545.47
2023-02-04T00:05:09.173Z,97567.72
2023-02-04T00:07:35.646Z,97555.59
2023-02-04T00:10:02.720Z,97552.19
2023-02-04T00:12:29.498Z,97530.16
2023-02-04T00:14:55.929Z,97541.72
2023-02-04T00:17:22.514Z,97536.97
2023-02-04T00:19:48.965Z,97556.66
2023-02-04T00:22:15.450Z,97559.13
2023-02-04T00:24:43.130Z,97559.75
2023-02-04T00:27:09.592Z,97554.16
2023-02-04T00:29:36.124Z,97561.03
2023-02-04T00:32:02.678Z,97560.69
2023-02-04T00:34:29.169Z,97562.69
2023-02-04T00:36:55.630Z,97570.25
2023-02-04T00:39:22.267Z,97576.31
2023-02-04T00:41:48.712Z,97571.94
2023-02-04T00:44:15.181Z,97589.06
2023-02-04T00:46:42.575Z,97593.69
2023-02-04T00:49:10.679Z,97579.13
2023-02-04T00:51:38.584Z,97568.91
2023-02-04T00:54:05.260Z,97578.19
2023-02-04T00:56:32.070Z,97579.88
2023-02-04T00:58:58.648Z,97573.31
2023-02-04T01:01:25.220Z,97579.41
2023-02-04T01:03:51.703Z,97585.47
2023-02-04T01:06:18.143Z,97593.00
2023-02-04T01:08:44.603Z,97589.38
2023-02-04T01:11:11.058Z,97589.97
2023-02-04T01:13:37.498Z,97581.59
2023-02-04T01:16:04.049Z,97566.66
2023-02-04T01:18:30.546Z,97583.06
2023-02-04T01:20:57.100Z,97576.59
2023-02-04T01:23:23.565Z,97576.22
2023-02-04T01:25:50.036Z,97561.09
2023-02-04T01:28:16.496Z,97572.97
2023-02-04T01:30:43.029Z,97578.31
2023-02-04T01:33:09.510Z,97571.28
2023-02-04T01:35:36.189Z,97568.81
2023-02-04T01:38:02.671Z,97558.91
2023-02-04T01:40:29.711Z,97572.06
2023-02-04T01:42:56.509Z,97566.28
2023-02-04T01:45:23.930Z,97567.13
2023-02-04T01:47:50.587Z,97577.06
2023-02-04T01:50:17.479Z,97576.38
2023-02-04T01:52:45.032Z,97581.31
2023-02-04T01:55:15.825Z,97556.50
2023-02-04T01:57:43.904Z,97553.41
2023-02-04T02:00:12.945Z,97549.25
2023-02-04T02:02:50.523Z,97544.31
2023-02-04T02:05:23.197Z,97560.34
2023-02-04T02:07:51.792Z,97564.50
2023-02-04T02:10:18.872Z,97548.91
2023-02-04T02:12:45.888Z,97553.06
2023-02-04T02:15:13.142Z,97551.03
2023-02-04T02:17:40.028Z,97539.06
2023-02-04T02:20:07.160Z,97546.53
2023-02-04T02:22:36.764Z,97541.41
2023-02-04T02:25:07.844Z,97528.03
2023-02-04T02:27:34.279Z,97538.19
2023-02-04T02:30:00.734Z,97521.88
2023-02-04T02:32:27.187Z,97526.19
2023-02-04T02:34:53.710Z,97541.16
2023-02-04T02:37:20.199Z,97536.78
2023-02-04T02:39:46.720Z,97529.50
2023-02-04T02:42:15.251Z,97538.78
2023-02-04T02:44:42.091Z,97530.19
2023-02-04T02:47:13.472Z,97528.28
2023-02-04T02:49:41.082Z,97527.69
2023-02-04T02:52:09.967Z,97516.75
2023-02-04T02:54:36.532Z,97518.38
2023-02-04T02:57:10.439Z,97503.00
2023-02-04T02:59:37.335Z,97502.28
2023-02-04T03:02:05.270Z,97516.84
2023-02-04T03:04:35.973Z,97515.25
2023-02-04T03:07:03.952Z,97510.28
2023-02-04T03:09:30.539Z,97513.53
2023-02-04T03:11:56.971Z,97511.41
2023-02-04T03:14:25.284Z,97506.63
2023-02-04T03:16:53.094Z,97512.50
2023-02-04T03:19:20.462Z,97511.34
2023-02-04T03:21:47.016Z,97525.22
2023-02-04T03:24:13.641Z,97513.97
2023-02-04T03:26:40.715Z,97533.78
2023-02-04T03:29:09.218Z,97528.19
2023-02-04T03:31:35.964Z,97527.13
2023-02-04T03:34:02.588Z,97528.41
2023-02-04T03:36:29.051Z,97527.72
2023-02-04T03:38:55.587Z,97513.72
2023-02-04T03:41:22.367Z,97531.81
2023-02-04T03:43:48.931Z,97522.88
2023-02-04T03:46:15.354Z,97508.72
2023-02-04T03:48:41.908Z,97504.56
2023-02-04T03:51:08.405Z,97515.91
2023-02-04T03:53:34.876Z,97505.25
2023-02-04T03:56:01.368Z,97513.00
2023-02-04T03:58:27.784Z,97507.50
2023-02-04T04:00:54.223Z,97529.25
2023-02-04T04:03:20.684Z,97535.97
2023-02-04T04:05:47.164Z,97548.13
2023-02-04T04:08:13.599Z,97557.59
2023-02-04T04:10:41.923Z,97539.84
2023-02-04T04:13:08.565Z,97546.03
2023-02-04T04:15:35.014Z,97549.16
2023-02-04T04:18:02.639Z,97559.63
2023-02-04T04:20:29.324Z,97572.81
2023-02-04T04:22:55.789Z,97566.94
2023-02-04T04:25:22.322Z,97567.56
2023-02-04T04:27:48.882Z,97587.69
2023-02-04T04:30:15.525Z,97575.28
2023-02-04T04:32:42.006Z,97600.84
2023-02-04T04:35:08.531Z,97613.41
2023-02-04T04:37:35.242Z,97638.38
2023-02-04T04:40:02.747Z,97627.78
2023-02-04T04:42:29.193Z,97630.28
2023-02-04T04:44:55.693Z,97636.94
2023-02-04T04:47:22.124Z,97641.31
2023-02-04T04:49:48.610Z,97651.91
2023-02-04T04:52:15.098Z,97649.34
2023-02-04T04:54:41.531Z,97655.22
2023-02-04T04:57:08.006Z,97677.50
2023-02-04T04:59:34.420Z,97678.38
2023-02-04T05:02:00.883Z,97673.19
2023-02-04T05:04:27.538Z,97698.69
2023-02-04T05:06:54.020Z,97693.00
2023-02-04T05:09:20.450Z,97714.75
2023-02-04T05:11:47.858Z,97709.22
2023-02-04T05:14:16.124Z,97704.28
2023-02-04T05:16:42.739Z,97721.41
2023-02-04T05:19:09.239Z,97724.50
2023-02-04T05:21:35.666Z,97741.22
2023-02-04T05:24:02.115Z,97750.78
2023-02-04T05:26:31.084Z,97749.56
2023-02-04T05:29:00.272Z,97752.97
2023-02-04T05:31:26.745Z,97761.97
2023-02-04T05:33:54.196Z,97760.53
2023-02-04T05:36:21.034Z,97757.38
2023-02-04T05:38:47.471Z,97756.50
2023-02-04T05:41:13.980Z,97757.09
2023-02-04T05:43:40.389Z,97764.94
2023-02-04T05:46:06.941Z,97761.06
2023-02-04T05:48:33.414Z,97768.00
2023-02-04T05:50:59.899Z,97753.94
2023-02-04T05:53:26.402Z,97758.44
2023-02-04T05:55:52.872Z,97755.38
2023-02-04T05:58:19.350Z,97745.28
2023-02-04T06:00:45.915Z,97748.75
2023-02-04T06:03:14.468Z,97770.75
2023-02-04T06:05:40.986Z,97754.25
2023-02-04T06:08:07.418Z,97761.34
2023-02-04T06:10:33.985Z,97769.75
2023-02-04T06:13:00.571Z,97763.28
2023-02-04T06:15:27.067Z,97785.41
2023-02-04T06:17:53.532Z,97765.31
2023-02-04T06:20:20.038Z,97786.09
2023-02-04T06:22:47.624Z,97792.53
2023-02-04T06:25:14.125Z,97794.38
2023-02-04T06:27:40.639Z,97796.72
2023-02-04T06:30:07.432Z,97805.50
2023-02-04T06:32:33.852Z,97823.34
2023-02-04T06:35:00.274Z,97833.19
2023-02-04T06:37:26.784Z,97844.75
2023-02-04T06:39:54.682Z,97863.84
2023-02-04T06:42:21.238Z,97857.00
2023-02-04T06:44:47.692Z,97864.28
2023-02-04T06:47:14.142Z,97875.03
2023-02-04T06:49:40.892Z,97884.00
2023-02-04T06:52:07.422Z,97898.00
2023-02-04T06:54:33.877Z,97911.28
2023-02-04T06:57:06.525Z,97916.38
2023-02-04T06:59:37.162Z,97917.47
2023-02-04T07:02:04.578Z,97927.44
2023-02-04T07:04:31.067Z,97941.06
2023-02-04T07:06:57.590Z,97957.59
2023-02-04T07:09:24.066Z,97961.00
2023-02-04T07:11:50.511Z,97974.31
2023-02-04T07:14:17.084Z,97992.34
2023-02-04T07:16:43.532Z,98010.41
2023-02-04T07:19:09.979Z,98017.28
2023-02-04T07:21:36.429Z,98035.13
2023-02-04T07:24:02.907Z,98039.22
2023-02-04T07:26:29.334Z,98050.38
2023-02-04T07:28:55.844Z,98051.94
2023-02-04T07:31:22.447Z,98070.44
2023-02-04T07:33:48.901Z,98086.56
2023-02-04T07:36:15.720Z,98079.31
2023-02-04T07:38:42.210Z,98079.50
2023-02-04T07:41:08.657Z,98088.88
2023-02-04T07:43:35.239Z,98077.94
2023-02-04T07:46:01.730Z,98082.28
2023-02-04T07:48:28.243Z,98094.88
2023-02-04T07:50:54.682Z,98097.19
2023-02-04T07:53:21.175Z,98083.56
2023-02-04T07:55:47.595Z,98077.13
2023-02-04T07:58:14.037Z,98080.16
2023-02-04T08:00:40.559Z,98098.53
2023-02-04T08:03:07.015Z,98106.50
2023-02-04T08:05:33.578Z,98106.47
2023-02-04T08:08:01.968Z,98103.91
2023-02-04T08:10:28.405Z,98121.28
2023-02-04T08:12:54.850Z,98124.16
2023-02-04T08:15:21.336Z,98135.47
2023-02-04T08:17:47.784Z,98144.25
2023-02-04T08:20:14.375Z,98147.47
2023-02-04T08:22:40.804Z,98166.91
2023-02-04T08:25:07.563Z,98168.53
2023-02-04T08:27:33.953Z,98179.16
2023-02-04T08:30:00.385Z,98169.06
2023-02-04T08:32:28.254Z,98191.88
2023-02-04T08:34:54.880Z,98183.63
2023-02-04T08:37:21.347Z,98198.97
2023-02-04T08:39:48.987Z,98189.91
2023-02-04T08:42:16.066Z,98189.38
2023-02-04T08:44:42.585Z,98197.66
2023-02-04T08:47:09.907Z,98201.13
2023-02-04T08:49:36.833Z,98209.78
2023-02-04T08:52:04.457Z,98222.38
2023-02-04T08:54:30.966Z,98232.44
2023-02-04T08:56:57.406Z,98217.69
2023-02-04T08:59:24.263Z,98213.03
2023-02-04T09:01:52.484Z,98229.13
2023-02-04T09:04:19.513Z,98241.75
2023-02-04T09:06:46.128Z,98239.47
2023-02-04T09:09:12.791Z,98256.31
2023-02-04T09:11:39.219Z,98264.69
2023-02-04T09:14:05.656Z,98281.53
2023-02-04T09:16:32.116Z,98268.53
2023-02-04T09:18:58.981Z,98278.56
2023-02-04T09:21:25.933Z,98299.06
2023-02-04T09:23:52.363Z,98303.28
2023-02-04T09:26:18.785Z,98304.31
2023-02-04T09:28:45.342Z,98314.09
2023-02-04T09:31:12.030Z,98322.84
2023-02-04T09:33:38.553Z,98329.00
2023-02-04T09:36:05.325Z,98320.09
2023-02-04T09:38:31.765Z,98332.19
2023-02-04T09:41:00.192Z,98324.75
2023-02-04T09:43:29.420Z,98348.09
2023-02-04T09:45:56.600Z,98337.06
2023-02-04T09:48:23.816Z,98339.25
2023-02-04T09:50:51.274Z,98362.84
2023-02-04T09:53:21.440Z,98364.84
2023-02-04T09:55:48.926Z,98382.53
2023-02-04T09:58:19.453Z,98370.88
2023-02-04T10:00:46.849Z,98385.69
2023-02-04T10:03:18.299Z,98381.53
2023-02-04T10:05:46.159Z,98385.13
2023-02-04T10:08:17.264Z,98388.06
2023-02-04T10:10:45.431Z,98413.28
2023-02-04T10:13:20.412Z,98418.69
2023-02-04T10:15:48.162Z,98409.25
2023-02-04T10:18:26.631Z,98415.69
2023-02-04T10:20:57.541Z,98416.47
2023-02-04T10:23:24.288Z,98415.03
2023-02-04T10:25:50.712Z,98441.41
2023-02-04T10:28:18.464Z,98445.41
2023-02-04T10:30:47.261Z,98440.06
2023-02-04T10:33:24.801Z,98426.34
2023-02-04T10:35:52.649Z,98457.09
2023-02-04T10:38:19.644Z,98457.25
2023-02-04T10:40:47.370Z,98453.13
2023-02-04T10:43:18.469Z,98458.19
2023-02-04T10:45:46.937Z,98441.22
2023-02-04T10:48:15.525Z,98431.28
2023-02-04T10:50:42.018Z,98448.06
2023-02-04T10:53:28.320Z,98436.31
2023-02-04T10:55:54.918Z,98431.84
2023-02-04T10:58:26.758Z,98448.97
2023-02-04T11:00:53.323Z,98447.13
2023-02-04T11:03:22.914Z,98431.63
2023-02-04T11:05:49.638Z,98429.13
2023-02-04T11:08:26.745Z,98438.06
2023-02-04T11:10:56.596Z,98428.69
2023-02-04T11:13:43.410Z,98431.84
2023-02-04T11:16:19.055Z,98445.03
2023-02-04T11:18:50.138Z,98443.72
2023-02-04T11:21:28.816Z,98425.78
2023-02-04T11:24:16.537Z,98421.28
2023-02-04T11:26:43.863Z,98412.38
2023-02-04T11:29:25.184Z,98420.59
2023-02-04T11:31:51.815Z,98427.66
2023-02-04T11:34:21.659Z,98427.31
2023-02-04T11:36:51.233Z,98435.56
2023-02-04T11:39:18.063Z,98426.44
2023-02-04T11:41:47.736Z,98434.78
2023-02-04T11:44:15.375Z,98462.81
2023-02-04T11:46:42.271Z,98459.94
2023-02-04T11:49:27.271Z,98443.00
2023-02-04T11:52:09.684Z,98472.44
2023-02-04T11:54:36.447Z,98451.41
2023-02-04T11:57:03.288Z,98453.41
2023-02-04T11:59:29.796Z,98455.81
2023-02-04T12:02:06.179Z,98469.66
2023-02-04T12:04:32.762Z,98464.25
2023-02-04T12:07:00.741Z,98470.03
2023-02-04T12:09:29.905Z,98445.78
2023-02-04T12:12:00.830Z,98469.88
2023-02-04T12:14:37.047Z,98449.59
2023-02-04T12:17:21.341Z,98467.78
2023-02-04T12:19:47.825Z,98460.53
2023-02-04T12:22:15.685Z,98471.22
2023-02-04T12:24:42.905Z,98470.81
2023-02-04T12:27:09.386Z,98483.72
2023-02-04T12:29:35.866Z,98478.47
2023-02-04T12:32:02.357Z,98478.50
2023-02-04T12:34:28.940Z,98456.31
2023-02-04T12:36:55.384Z,98492.09
2023-02-04T12:39:21.854Z,98499.28
2023-02-04T12:41:48.295Z,98488.41
2023-02-04T12:44:15.807Z,98490.88
2023-02-04T12:46:42.235Z,98483.81
2023-02-04T12:49:09.698Z,98511.47
2023-02-04T12:51:36.258Z,98505.47
2023-02-04T12:54:02.740Z,98500.69
2023-02-04T12:56:29.230Z,98497.50
2023-02-04T12:58:55.728Z,98502.13
2023-02-04T13:01:22.189Z,98495.31
2023-02-04T13:03:48.648Z,98498.91
2023-02-04T13:06:15.097Z,98491.13
2023-02-04T13:08:41.547Z,98505.91
2023-02-04T13:11:08.040Z,98512.69
2023-02-04T13:13:34.506Z,98507.88
2023-02-04T13:16:01.143Z,98519.84
2023-02-04T13:18:27.594Z,98522.28
2023-02-04T13:20:54.097Z,98529.75
2023-02-04T13:23:20.589Z,98535.50
2023-02-04T13:25:47.124Z,98549.78
2023-02-04T13:28:14.132Z,98553.16
2023-02-04T13:30:40.705Z,98542.78
2023-02-04T13:33:07.244Z,98555.28
2023-02-04T13:35:33.894Z,98564.47
2023-02-04T13:38:00.615Z,98579.41
2023-02-04T13:40:27.112Z,98573.56
2023-02-04T13:42:53.597Z,98570.72
2023-02-04T13:45:20.236Z,98581.28
2023-02-04T13:47:48.001Z,98580.94
2023-02-04T13:50:15.971Z,98590.94
2023-02-04T13:52:42.422Z,98603.56
2023-02-04T13:55:08.930Z,98610.00
2023-02-04T13:57:37.318Z,98612.03
2023-02-04T14:00:04.954Z,98607.75
2023-02-04T14:02:38.836Z,98614.69
2023-02-04T14:05:05.576Z,98625.44
2023-02-04T14:07:33.423Z,98624.69
2023-02-04T14:09:59.895Z,98619.81
2023-02-04T14:12:26.300Z,98611.09
2023-02-04T14:14:53.113Z,98622.44
2023-02-04T14:17:19.655Z,98603.88
2023-02-04T14:19:46.196Z,98605.03
2023-02-04T14:22:13.224Z,98617.06
2023-02-04T14:24:42.430Z,98617.59
2023-02-04T14:27:09.648Z,98620.31
2023-02-04T14:29:36.162Z,98620.56
2023-02-04T14:32:02.638Z,98615.00
2023-02-04T14:34:29.084Z,98617.88
2023-02-04T14:36:55.559Z,98639.75
2023-02-04T14:39:21.998Z,98637.66
2023-02-04T14:41:48.470Z,98641.09
2023-02-04T14:44:20.525Z,98651.47
2023-02-04T14:46:50.730Z,98635.00
2023-02-04T14:49:17.422Z,98641.19
2023-02-04T14:51:44.373Z,98647.19
2023-02-04T14:54:11.077Z,98643.41
2023-02-04T14:56:37.542Z,98646.16
2023-02-04T14:59:03.976Z,98638.41
2023-02-04T15:01:31.031Z,98640.31
2023-02-04T15:03:58.185Z,98638.63
2023-02-04T15:06:24.604Z,98627.22
2023-02-04T15:08:51.072Z,98648.41
2023-02-04T15:11:17.525Z,98649.47
2023-02-04T15:13:43.953Z,98664.84
2023-02-04T15:16:12.298Z,98654.09
2023-02-04T15:18:38.877Z,98661.09
2023-02-04T15:21:05.448Z,98657.88
2023-02-04T15:23:31.899Z,98662.84
2023-02-04T15:25:58.404Z,98669.19
2023-02-04T15:28:24.944Z,98679.88
2023-02-04T15:30:51.500Z,98671.84
2023-02-04T15:33:18.044Z,98677.75
2023-02-04T15:35:44.467Z,98696.06
2023-02-04T15:38:11.176Z,98692.03
2023-02-04T15:40:37.610Z,98702.75
2023-02-04T15:43:04.080Z,98698.72
2023-02-04T15:45:30.570Z,98696.28
2023-02-04T15:47:56.993Z,98703.69
2023-02-04T15:50:23.421Z,98707.22
2023-02-04T15:52:49.908Z,98719.09
2023-02-04T15:55:16.455Z,98713.56
2023-02-04T15:57:42.933Z,98722.50
2023-02-04T16:00:09.701Z,98732.63
2023-02-04T16:02:36.280Z,98722.97
2023-02-04T16:05:02.851Z,98739.19
2023-02-04T16:07:29.286Z,98748.41
2023-02-04T16:09:55.728Z,98760.53
2023-02-04T16:12:22.143Z,98753.31
2023-02-04T16:14:48.617Z,98763.34
2023-02-04T16:17:15.037Z,98773.63
2023-02-04T16:19:41.568Z,98773.66
2023-02-04T16:22:08.095Z,98777.59
2023-02-04T16:24:35.344Z,98781.88
2023-02-04T16:27:01.758Z,98789.63
2023-02-04T16:29:28.289Z,98795.03
2023-02-04T16:31:55.536Z,98800.72
2023-02-04T16:34:22.040Z,98799.06
2023-02-04T16:36:48.514Z,98812.66
2023-02-04T16:39:15.262Z,98824.47
2023-02-04T16:41:41.867Z,98830.72
2023-02-04T16:44:08.317Z,98817.81
2023-02-04T16:46:34.796Z,98816.78
2023-02-04T16:49:01.395Z,98817.03
2023-02-04T16:51:28.112Z,98811.78
2023-02-04T16:53:54.568Z,98815.91
2023-02-04T16:56:21.041Z,98822.59
2023-02-04T16:58:48.338Z,98828.78
2023-02-04T17:01:17.155Z,98826.38
2023-02-04T17:03:44.013Z,98831.72
2023-02-04T17:06:10.492Z,98836.91
2023-02-04T17:08:36.939Z,98828.59
2023-02-04T17:11:22.083Z,98834.84
2023-02-04T17:13:48.555Z,98838.34
2023-02-04T17:16:15.169Z,98836.94
2023-02-04T17:18:41.655Z,98853.78
2023-02-04T17:21:08.069Z,98847.06
2023-02-04T17:23:35.408Z,98865.00
2023-02-04T17:26:01.960Z,98854.00
2023-02-04T17:28:28.505Z,98868.75
2023-02-04T17:30:55.029Z,98871.19
2023-02-04T17:33:21.608Z,98880.03
2023-02-04T17:35:48.627Z,98888.34
2023-02-04T17:38:15.176Z,98903.47
2023-02-04T17:40:42.577Z,98901.19
2023-02-04T17:43:09.202Z,98908.88
2023-02-04T17:45:36.112Z,98909.34
2023-02-04T17:48:02.771Z,98910.25
2023-02-04T17:50:29.232Z,98913.09
2023-02-04T17:52:55.762Z,98910.28
2023-02-04T17:55:28.810Z,98919.56
2023-02-04T17:57:55.794Z,98927.34
2023-02-04T18:00:23.445Z,98933.28
2023-02-04T18:02:50.807Z,98926.09
2023-02-04T18:05:24.858Z,98918.13
2023-02-04T18:08:14.636Z,98919.69
2023-02-04T18:10:59.349Z,98927.97
2023-02-04T18:13:32.959Z,98927.78
2023-02-04T18:16:10.133Z,98918.56
2023-02-04T18:18:37.814Z,98923.75
2023-02-04T18:21:21.804Z,98916.28
2023-02-04T18:23:52.938Z,98924.06
2023-02-04T18:26:22.912Z,98934.53
2023-02-04T18:28:49.851Z,98931.38
2023-02-04T18:31:32.285Z,98930.25
2023-02-04T18:33:58.968Z,98935.59
2023-02-04T18:36:27.410Z,98928.72
2023-02-04T18:38:54.865Z,98929.84
2023-02-04T18:41:31.361Z,98934.44
2023-02-04T18:44:02.787Z,98945.78
2023-02-04T18:46:31.775Z,98950.22
2023-02-04T18:49:19.366Z,98943.31
2023-02-04T18:51:46.161Z,98940.47
2023-02-04T18:54:23.395Z,98943.03
2023-02-04T18:56:49.852Z,98945.41
2023-02-04T18:59:17.339Z,98943.75
2023-02-04T19:01:45.746Z,98952.69
2023-02-04T19:04:13.881Z,98947.81
2023-02-04T19:06:42.596Z,98931.00
2023-02-04T19:09:12.202Z,98945.97
2023-02-04T19:11:46.490Z,98949.38
2023-02-04T19:14:31.148Z,98949.63
2023-02-04T19:17:25.170Z,98960.19
2023-02-04T19:19:55.511Z,98955.03
2023-02-04T19:22:40.595Z,98964.38
2023-02-04T19:25:22.442Z,98958.44
2023-02-04T19:27:54.083Z,98970.66
2023-02-04T19:30:26.755Z,98981.84
2023-02-04T19:32:57.011Z,98974.56
2023-02-04T19:35:24.974Z,98982.22
2023-02-04T19:37:54.561Z,98970.97
2023-02-04T19:40:47.441Z,98960.50
2023-02-04T19:43:21.971Z,98968.66
2023-02-04T19:45:50.927Z,98966.88
2023-02-04T19:48:22.628Z,98967.97
2023-02-04T19:50:51.447Z,98972.97
2023-02-04T19:53:22.371Z,98967.19
2023-02-04T19:55:52.485Z,98977.31
2023-02-04T19:58:18.960Z,98969.56
2023-02-04T20:01:01.927Z,98974.59
2023-02-04T20:03:41.787Z,98966.97
2023-02-04T20:06:23.355Z,98964.53
2023-02-04T20:08:54.173Z,98968.84
2023-02-04T20:11:20.593Z,98963.97
2023-02-04T20:13:47.031Z,98967.06
2023-02-04T20:16:32.223Z,98962.69
2023-02-04T20:19:00.929Z,98961.22
2023-02-04T20:21:27.763Z,98943.41
2023-02-04T20:23:54.617Z,98945.84
2023-02-04T20:26:21.078Z,98953.31
2023-02-04T20:28:48.061Z,98956.03
2023-02-04T20:31:22.328Z,98957.56
2023-02-04T20:33:50.513Z,98954.75
2023-02-04T20:36:19.939Z,98963.53
2023-02-04T20:38:46.444Z,98968.63
2023-02-04T20:41:16.036Z,98965.81
2023-02-04T20:43:42.916Z,98962.38
2023-02-04T20:46:14.905Z,98975.63
2023-02-04T20:48:42.999Z,98973.31
2023-02-04T20:51:22.960Z,98973.13
2023-02-04T20:53:50.721Z,98982.00
2023-02-04T20:56:32.106Z,98979.63
2023-02-04T20:59:17.278Z,98985.41
2023-02-04T21:01:48.860Z,98989.28
2023-02-04T21:04:15.344Z,99003.84
2023-02-04T21:06:41.769Z,98988.69
2023-02-04T21:09:10.747Z,98987.81
2023-02-04T21:11:37.262Z,98990.25
2023-02-04T21:14:03.674Z,98994.44
2023-02-04T21:16:30.114Z,98997.97
2023-02-04T21:18:56.563Z,98999.75
2023-02-04T21:21:24.442Z,98997.03
2023-02-04T21:23:51.116Z,99008.63
2023-02-04T21:26:17.540Z,99000.53
2023-02-04T21:28:44.180Z,98997.56
2023-02-04T21:31:11.611Z,98997.41
2023-02-04T21:33:38.238Z,98998.66
2023-02-04T21:36:04.839Z,98996.75
2023-02-04T21:38:31.281Z,98992.09
2023-02-04T21:40:57.756Z,98996.03
2023-02-04T21:43:24.189Z,98997.41
2023-02-04T21:45:50.716Z,99000.47
2023-02-04T21:48:17.259Z,99001.75
2023-02-04T21:50:43.889Z,99009.22
2023-02-04T21:53:10.529Z,99014.50
2023-02-04T21:55:37.143Z,99010.06
2023-02-04T21:58:04.171Z,99010.00
2023-02-04T22:00:30.686Z,99016.72
2023-02-04T22:02:57.294Z,99011.25
2023-02-04T22:05:24.391Z,99018.72
2023-02-04T22:07:51.175Z,99025.50
2023-02-04T22:10:19.261Z,99018.44
2023-02-04T22:12:45.710Z,99012.38
2023-02-04T22:15:12.171Z,99018.84
2023-02-04T22:17:38.667Z,99019.25
2023-02-04T22:20:05.351Z,99027.47
2023-02-04T22:22:31.825Z,99026.16
2023-02-04T22:24:58.319Z,99029.00
2023-02-04T22:27:24.884Z,99030.44
2023-02-04T22:29:51.340Z,99028.16
2023-02-04T22:32:17.776Z,99026.88
2023-02-04T22:34:44.205Z,99035.94
2023-02-04T22:37:10.677Z,99036.63
2023-02-04T22:39:37.168Z,99037.19
2023-02-04T22:42:03.707Z,99037.31
2023-02-04T22:44:30.177Z,99040.91
2023-02-04T22:46:56.732Z,99045.84
2023-02-04T22:49:23.327Z,99046.47
2023-02-04T22:51:49.810Z,99041.97
2023-02-04T22:54:16.560Z,99040.16
2023-02-04T22:56:43.004Z,99031.75
2023-02-04T22:59:09.494Z,99028.53
2023-02-04T23:01:35.988Z,99038.94
2023-02-04T23:04:02.621Z,99034.56
2023-02-04T23:06:29.124Z,99033.19
2023-02-04T23:08:55.755Z,99031.41
2023-02-04T23:11:23.212Z,99032.78
2023-02-04T23:13:50.286Z,99033.13
2023-02-04T23:16:17.279Z,99036.63
2023-02-04T23:18:43.976Z,99033.81
2023-02-04T23:21:10.593Z,99029.69
2023-02-04T23:23:37.438Z,99027.44
2023-02-04T23:26:04.036Z,99031.59
2023-02-04T23:28:31.015Z,99027.00
2023-02-04T23:30:57.700Z,99026.78
2023-02-04T23:33:24.288Z,99033.72
2023-02-04T23:35:50.851Z,99042.66
2023-02-04T23:38:17.285Z,99043.09
2023-02-04T23:40:43.767Z,99039.78
2023-02-04T23:43:10.963Z,99047.34
2023-02-04T23:45:37.747Z,99048.97
2023-02-04T23:48:04.437Z,99041.31
2023-02-04T23:50:30.904Z,99047.06
2023-02-04T23:52:57.338Z,99036.69
2023-02-04T23:55:24.155Z,99045.47
2023-02-04T23:57:50.705Z,99046.97
